Main page
METAR-TAF:

METAR-TAF

Airports :

London Biggin Hill Airport

London Biggin Hill, England

latitude: 51-19N, longitude: 000-02E, elevation: 183 m

Current weather observation

The report was made 2 hours and 58 minutes ago, at 20:20 UTC
Wind 3 kt from the Southeast
Temperature 16°C
Humidity 55%
Pressure 1003 hPa
Visibility 10 km or more
no clouds below 1500 m and no cumulonimbus

METAR: EGKB 222020Z 13003KT CAVOK 16/07 Q1003

Time: 00:18 (23:18 UTC)

Forecast

The report was made 6 hours and 20 minutes ago, at 16:58 UTC
Forecast valid from 22 at 18 UTC to 22 at 22 UTC
Wind 9 kt from the East/Southeast
Visibility 10 km or more
no clouds below 1500 m and no cumulonimbus

TAF: EGKB 221658Z 2218/2222 12009KT CAVOK

Weather observations and forecasts of more than 4000 airports (METAR and TAF reports).

The available stations are represented by yellow and red dots on the map.

Hover mouse over dot to see the name of the station.

Then click to see weather observations and forecasts.

To change the map : click on the green buttons with a black cross to zoom in, on the green button with a dash to zoom out, or on the green arrows for adjacent maps.


METAR-TAF: